Time;durP1;ratioP1;P1;durP2;ratioP2;P2;SDS_P1;SDS_P2;PMS_P1;PMS_P2;Temp;Humidity;BMP_temperature;BMP_pressure;BME280_temperature;BME280_humidity;BME280_pressure;Samples;Min_cycle;Max_cycle;Signal;HPM_P1;HPM_P2
2022/04/10 00:02:00;;;;;;;;;36.50;35.00;;;;;4.59;65.34;101765.06;5070240;27;45299;-76
2022/04/10 00:04:26;;;;;;;;;42.00;33.00;;;;;4.80;65.54;101790.00;5076897;28;45764;-76
2022/04/10 00:06:51;;;;;;;;;42.25;34.75;;;;;4.71;65.62;101787.69;5069592;27;45355;-76
2022/04/10 00:09:16;;;;;;;;;31.75;29.00;;;;;4.59;65.51;101765.94;5061211;28;45465;-76
2022/04/10 00:11:42;;;;;;;;;43.00;36.00;;;;;4.67;66.04;101771.69;5075146;27;45966;-76
2022/04/10 00:14:07;;;;;;;;;38.00;34.75;;;;;4.79;65.54;101806.53;5060312;28;45336;-77
2022/04/10 00:16:33;;;;;;;;;38.50;32.75;;;;;4.51;65.43;101759.34;5067971;28;45307;-76
2022/04/10 00:19:04;;;;;;;;;35.50;28.00;;;;;4.65;65.41;101797.78;5079109;27;45476;-77
2022/04/10 00:21:33;;;;;;;;;36.00;32.25;;;;;4.62;65.49;101800.22;5075247;28;45824;-77
2022/04/10 00:23:59;;;;;;;;;36.75;33.50;;;;;4.59;65.84;101800.00;5068120;27;45270;-77
2022/04/10 00:26:24;;;;;;;;;39.50;38.00;;;;;4.55;65.14;101797.09;5070755;28;45255;-75
2022/04/10 00:28:53;;;;;;;;;38.50;37.25;;;;;4.22;65.98;101739.13;5067707;27;45200;-75
2022/04/10 00:31:18;;;;;;;;;45.25;35.50;;;;;4.55;66.25;101792.75;5067961;28;45547;-76
2022/04/10 00:33:44;;;;;;;;;42.00;37.00;;;;;4.28;65.97;101751.72;5067234;27;45411;-75
2022/04/10 00:36:09;;;;;;;;;40.00;35.00;;;;;4.44;65.69;101784.22;5065697;28;45434;-76
2022/04/10 00:38:35;;;;;;;;;39.50;34.00;;;;;4.51;66.43;101797.69;5066994;27;45346;-76
2022/04/10 00:41:00;;;;;;;;;38.50;36.00;;;;;4.33;66.72;101772.13;5063936;28;45437;-76
2022/04/10 00:43:32;;;;;;;;;38.75;31.75;;;;;4.45;66.48;101798.19;5064689;28;45345;-76
2022/04/10 00:45:58;;;;;;;;;36.75;30.75;;;;;4.20;65.27;101757.38;5062874;28;45884;-75
2022/04/10 00:48:23;;;;;;;;;34.50;30.25;;;;;4.15;67.29;101747.41;5064884;28;45311;-76
2022/04/10 00:53:34;;;;;;;;;28.75;28.50;;;;;4.19;66.52;101765.09;5064903;28;45368;-75
2022/04/10 00:56:00;;;;;;;;;28.50;26.75;;;;;4.37;66.20;101789.88;5073809;28;45433;-76
2022/04/10 00:58:27;;;;;;;;;26.25;25.50;;;;;4.08;66.30;101746.06;5063048;28;45686;-76
2022/04/10 01:00:53;;;;;;;;;27.00;25.25;;;;;4.33;66.28;101797.41;5072010;28;45984;-77
2022/04/10 01:03:18;;;;;;;;;31.75;29.00;;;;;4.25;65.85;101796.91;5072761;28;46191;-76
2022/04/10 01:05:46;;;;;;;;;33.75;30.75;;;;;4.17;66.25;101793.81;5067826;28;45173;-75
2022/04/10 01:08:11;;;;;;;;;32.00;30.50;;;;;4.18;66.97;101795.59;5074199;28;46304;-74
2022/04/10 01:10:36;;;;;;;;;34.00;29.50;;;;;3.96;66.46;101758.34;5071539;28;47127;-76
2022/04/10 01:13:02;;;;;;;;;31.75;27.50;;;;;4.15;66.75;101799.72;5072557;28;45283;-75
2022/04/10 01:15:27;;;;;;;;;32.00;27.00;;;;;4.08;66.96;101787.03;5064217;28;45361;-75
2022/04/10 01:17:53;;;;;;;;;30.00;27.25;;;;;4.01;67.03;101783.13;5070960;28;45252;-76
2022/04/10 01:20:20;;;;;;;;;34.50;32.25;;;;;4.07;67.02;101793.97;5063811;28;45354;-75
2022/04/10 01:22:46;;;;;;;;;19.25;18.50;;;;;3.95;67.09;101782.69;5062955;27;45327;-75
2022/04/10 01:25:11;;;;;;;;;28.75;27.75;;;;;3.85;67.03;101769.81;5062619;28;45320;-76
2022/04/10 01:27:38;;;;;;;;;37.50;32.25;;;;;3.83;67.14;101776.66;5072605;27;45480;-75
2022/04/10 01:30:05;;;;;;;;;34.25;32.50;;;;;3.98;68.43;101798.63;5059966;28;47305;-75
2022/04/10 01:32:31;;;;;;;;;30.50;27.75;;;;;3.89;67.96;101777.94;5072000;28;45192;-75
2022/04/10 01:34:59;;;;;;;;;33.75;31.00;;;;;3.97;67.80;101796.78;5062235;28;45505;-75
2022/04/10 01:37:26;;;;;;;;;31.00;25.75;;;;;3.94;67.48;101797.47;5064734;28;46184;-75
2022/04/10 01:39:51;;;;;;;;;37.25;33.75;;;;;3.84;67.27;101783.69;5066157;28;46075;-75
2022/04/10 01:42:17;;;;;;;;;31.75;29.75;;;;;3.90;66.84;101795.47;5066675;27;45293;-75
2022/04/10 01:44:43;;;;;;;;;35.50;31.25;;;;;3.80;67.67;101779.97;5061295;28;45348;-75
2022/04/10 01:47:09;;;;;;;;;32.75;28.25;;;;;3.80;68.31;101785.19;5064134;28;45438;-75
2022/04/10 01:49:34;;;;;;;;;33.00;29.25;;;;;3.89;68.32;101795.34;5066276;28;45258;-75
2022/04/10 01:51:59;;;;;;;;;32.50;28.75;;;;;3.66;67.19;101751.97;5062495;28;45248;-75
2022/04/10 01:54:25;;;;;;;;;30.25;24.00;;;;;3.77;67.69;101771.91;5060349;28;45205;-75
2022/04/10 01:56:50;;;;;;;;;32.50;32.00;;;;;3.73;67.51;101759.44;5071039;27;45577;-75
2022/04/10 01:59:15;;;;;;;;;33.00;27.75;;;;;3.70;68.21;101749.69;5058704;28;45379;-76
2022/04/10 02:01:41;;;;;;;;;38.00;30.00;;;;;3.82;68.24;101773.13;5069665;27;45240;-75
2022/04/10 02:04:07;;;;;;;;;33.75;30.25;;;;;3.72;67.81;101760.22;5058534;28;45400;-74
2022/04/10 02:06:34;;;;;;;;;27.00;27.00;;;;;3.84;67.36;101787.22;5085088;27;46509;-75
2022/04/10 02:08:59;;;;;;;;;29.25;27.50;;;;;3.62;68.13;101744.75;5067027;28;47266;-75
2022/04/10 02:11:25;;;;;;;;;39.25;34.00;;;;;3.60;67.91;101749.84;5067123;27;45354;-76
2022/04/10 02:13:50;;;;;;;;;32.75;31.50;;;;;3.70;67.20;101767.09;5068203;28;45319;-75
2022/04/10 02:16:17;;;;;;;;;40.25;30.25;;;;;3.66;68.16;101767.66;5064281;28;45548;-75
2022/04/10 02:18:43;;;;;;;;;49.00;40.75;;;;;3.65;68.96;101768.47;5068808;27;45323;-76
2022/04/10 02:21:09;;;;;;;;;46.75;38.75;;;;;3.56;68.53;101753.09;5068677;28;45836;-75
2022/04/10 02:23:35;;;;;;;;;46.00;39.00;;;;;3.68;68.20;101782.66;5068773;27;45241;-74
2022/04/10 02:26:00;;;;;;;;;46.75;39.25;;;;;3.68;68.23;101784.38;5067537;28;46073;-76
2022/04/10 02:28:26;;;;;;;;;44.25;38.75;;;;;3.52;68.17;101761.50;5067523;28;46446;-76
2022/04/10 02:30:51;;;;;;;;;50.00;40.75;;;;;3.64;67.95;101792.78;5060267;28;45209;-75
2022/04/10 02:33:16;;;;;;;;;38.75;37.25;;;;;3.31;67.97;101734.81;5066534;28;45274;-75
2022/04/10 02:35:43;;;;;;;;;40.00;35.50;;;;;3.59;68.06;101787.28;5063007;28;45473;-76
2022/04/10 02:38:09;;;;;;;;;42.25;39.25;;;;;3.28;68.22;101735.53;5065118;28;45261;-76
2022/04/10 02:40:34;;;;;;;;;45.50;39.50;;;;;3.53;67.87;101792.09;5061323;28;45601;-76
2022/04/10 02:42:59;;;;;;;;;49.00;39.00;;;;;3.50;68.46;101786.63;5066368;28;45347;-75
2022/04/10 02:45:25;;;;;;;;;44.50;39.75;;;;;3.49;68.23;101793.56;5066360;28;45529;-76
2022/04/10 02:47:50;;;;;;;;;44.50;41.25;;;;;3.47;68.61;101786.41;5067443;27;45409;-76
2022/04/10 02:50:16;;;;;;;;;45.00;38.25;;;;;3.30;67.64;101760.03;5070606;28;45394;-76
2022/04/10 02:52:41;;;;;;;;;49.50;41.00;;;;;3.24;68.17;101763.94;5071741;27;45363;-76
2022/04/10 02:55:08;;;;;;;;;43.50;39.00;;;;;3.40;68.35;101789.44;5068926;28;47214;-75
2022/04/10 02:57:34;;;;;;;;;44.00;39.00;;;;;3.38;68.53;101788.41;5078101;27;48148;-75
2022/04/10 02:59:59;;;;;;;;;42.00;38.25;;;;;2.79;68.52;101695.53;5070830;28;45347;-75
2022/04/10 03:02:24;;;;;;;;;37.25;36.00;;;;;3.27;68.89;101785.03;5070167;28;45292;-76
2022/04/10 03:04:50;;;;;;;;;40.25;33.50;;;;;3.24;68.84;101775.28;5063269;28;45433;-76
2022/04/10 03:07:15;;;;;;;;;45.00;38.25;;;;;3.30;67.98;101794.00;5070036;28;46246;-76
2022/04/10 03:09:41;;;;;;;;;36.75;34.25;;;;;2.99;68.61;101743.94;5064017;28;45364;-77
2022/04/10 03:12:08;;;;;;;;;38.75;33.75;;;;;3.27;69.00;101800.72;5070672;27;45251;-77
2022/04/10 03:14:34;;;;;;;;;42.50;37.25;;;;;3.19;69.11;101783.59;5065343;27;45537;-77
2022/04/10 03:16:59;;;;;;;;;40.75;35.25;;;;;3.18;68.60;101787.94;5071223;27;46175;-77
2022/04/10 03:19:24;;;;;;;;;38.75;34.50;;;;;3.17;68.40;101799.19;5067586;27;45321;-77
2022/04/10 03:21:50;;;;;;;;;45.00;36.25;;;;;3.12;67.66;101788.41;5074295;27;45787;-76
2022/04/10 03:24:15;;;;;;;;;44.25;35.00;;;;;3.14;68.14;101799.88;5067224;27;45423;-76
2022/04/10 03:26:40;;;;;;;;;37.25;32.00;;;;;3.06;69.08;101787.06;5069785;27;45456;-76
2022/04/10 03:29:06;;;;;;;;;35.50;31.75;;;;;2.87;68.90;101757.03;5066231;27;45457;-76
2022/04/10 03:31:31;;;;;;;;;34.50;33.00;;;;;2.91;68.57;101766.94;5070742;27;45662;-75
2022/04/10 03:33:57;;;;;;;;;36.25;32.00;;;;;2.79;69.53;101752.09;5067554;27;45480;-76
2022/04/10 03:36:22;;;;;;;;;40.50;35.50;;;;;3.05;70.38;101795.69;5067669;27;45795;-76
2022/04/10 03:38:47;;;;;;;;;34.50;34.50;;;;;3.03;69.68;101798.22;5063698;27;45340;-76
2022/04/10 03:41:13;;;;;;;;;39.25;37.00;;;;;2.99;69.57;101792.66;5064163;28;45336;-76
2022/04/10 03:43:38;;;;;;;;;40.25;38.00;;;;;2.87;69.32;101766.59;5066026;27;45355;-76
2022/04/10 03:46:03;;;;;;;;;36.75;35.50;;;;;2.82;69.48;101762.75;5061711;28;47373;-76
2022/04/10 03:48:29;;;;;;;;;42.00;39.25;;;;;3.03;68.97;101802.53;5065517;28;45371;-76
2022/04/10 03:50:55;;;;;;;;;42.33;38.33;;;;;3.00;69.55;101803.22;5070283;28;45397;-76
2022/04/10 03:53:20;;;;;;;;;37.25;32.50;;;;;2.85;70.18;101774.28;5060810;28;46251;-75
2022/04/10 03:55:47;;;;;;;;;43.50;37.00;;;;;2.87;69.99;101783.16;5068199;28;46086;-76
2022/04/10 03:58:13;;;;;;;;;38.75;34.00;;;;;2.77;69.79;101765.00;5065917;28;45259;-76
2022/04/10 04:00:40;;;;;;;;;35.50;29.25;;;;;2.86;69.93;101783.06;5065347;28;45476;-76
2022/04/10 04:03:05;;;;;;;;;39.00;36.50;;;;;2.93;69.83;101798.34;5061161;28;45341;-78
2022/04/10 04:05:31;;;;;;;;;42.50;40.25;;;;;2.92;70.36;101804.38;5072807;28;47139;-75
2022/04/10 04:07:56;;;;;;;;;37.75;34.25;;;;;2.90;70.01;101800.75;5094053;27;45494;-75
2022/04/10 04:10:22;;;;;;;;;34.25;33.00;;;;;2.43;69.09;101720.84;5072008;28;45491;-75
2022/04/10 04:12:47;;;;;;;;;43.00;39.25;;;;;2.11;69.64;101678.53;5064547;28;46305;-76
2022/04/10 04:15:13;;;;;;;;;31.50;29.00;;;;;2.83;70.63;101794.19;5074724;28;45336;-75
2022/04/10 04:17:38;;;;;;;;;35.00;33.00;;;;;2.84;70.32;101784.66;5059745;28;45343;-76
2022/04/10 04:20:05;;;;;;;;;38.25;32.75;;;;;2.79;69.40;101780.81;5063764;28;45457;-75
2022/04/10 04:22:31;;;;;;;;;37.25;33.00;;;;;2.54;69.70;101738.97;5060406;28;45448;-76
2022/04/10 04:24:56;;;;;;;;;35.75;33.50;;;;;2.81;69.19;101800.09;5063306;28;45245;-77
2022/04/10 04:27:22;;;;;;;;;34.00;30.50;;;;;2.80;69.54;101795.66;5060736;28;44866;-75
2022/04/10 04:29:47;;;;;;;;;43.00;38.75;;;;;2.78;69.77;101798.16;5063309;28;45430;-75
2022/04/10 04:32:12;;;;;;;;;42.25;34.25;;;;;2.67;69.90;101783.44;5061193;27;45380;-75
2022/04/10 04:34:38;;;;;;;;;36.75;31.75;;;;;2.66;69.53;101797.28;5061726;28;45266;-76
2022/04/10 04:37:04;;;;;;;;;31.00;26.25;;;;;2.72;70.56;101807.25;5062770;27;45976;-77
2022/04/10 04:39:30;;;;;;;;;30.50;28.75;;;;;2.62;70.08;101790.03;5061327;28;45548;-74
2022/04/10 04:41:55;;;;;;;;;31.00;29.50;;;;;2.38;70.12;101760.44;5082976;27;47380;-75
2022/04/10 04:44:20;;;;;;;;;29.50;28.25;;;;;2.68;70.20;101821.78;5060791;28;45452;-77
2022/04/10 04:46:46;;;;;;;;;31.25;31.25;;;;;2.62;70.55;101814.41;5064327;27;45435;-76
2022/04/10 04:49:11;;;;;;;;;32.00;26.50;;;;;2.67;70.71;101822.59;5065233;28;45498;-76
2022/04/10 04:51:37;;;;;;;;;32.00;26.75;;;;;2.32;70.91;101775.66;5069166;27;45425;-78
2022/04/10 04:54:03;;;;;;;;;32.00;29.50;;;;;2.68;70.25;101834.84;5059664;28;45445;-77
2022/04/10 04:56:30;;;;;;;;;31.50;29.75;;;;;2.67;69.58;101833.03;5065828;27;45964;-75
2022/04/10 04:58:55;;;;;;;;;25.50;21.75;;;;;2.42;69.36;101797.31;5059132;28;45226;-75
2022/04/10 05:01:20;;;;;;;;;25.50;25.50;;;;;2.59;69.55;101839.41;5064060;28;45205;-74
2022/04/10 05:03:46;;;;;;;;;28.75;23.50;;;;;2.32;69.97;101810.47;5072923;28;47024;-74
2022/04/10 05:06:11;;;;;;;;;27.50;25.50;;;;;2.57;70.60;101851.44;5062374;28;45319;-75
2022/04/10 05:08:37;;;;;;;;;27.00;24.75;;;;;2.50;70.43;101830.91;5059015;28;45577;-75
2022/04/10 05:11:02;;;;;;;;;22.50;17.25;;;;;2.56;70.00;101850.53;5062179;28;46421;-76
2022/04/10 05:13:28;;;;;;;;;33.00;26.50;;;;;2.44;70.34;101828.75;5060312;28;45758;-75
2022/04/10 05:15:54;;;;;;;;;27.75;27.25;;;;;2.47;70.51;101823.75;5065881;28;45347;-75
2022/04/10 05:18:20;;;;;;;;;27.50;25.50;;;;;2.55;69.39;101847.78;5070299;28;45200;-74
2022/04/10 05:20:46;;;;;;;;;21.50;20.00;;;;;2.29;69.71;101805.03;5064441;28;45396;-75
2022/04/10 05:23:16;;;;;;;;;43.75;36.25;;;;;2.23;70.40;101792.44;5059212;28;46594;-76
2022/04/10 05:25:41;;;;;;;;;30.50;27.75;;;;;2.31;69.81;101807.78;5063396;28;45525;-76
2022/04/10 05:28:07;;;;;;;;;28.25;22.00;;;;;2.35;70.25;101830.66;5074783;28;45288;-77
2022/04/10 05:30:32;;;;;;;;;28.75;24.75;;;;;2.37;70.52;101829.09;5072601;28;47127;-77
2022/04/10 05:32:57;;;;;;;;;25.50;24.00;;;;;2.38;70.83;101833.50;5066854;28;45425;-76
2022/04/10 05:35:22;;;;;;;;;27.50;24.75;;;;;2.48;70.68;101854.28;5063824;28;45438;-76
2022/04/10 05:37:48;;;;;;;;;33.25;24.75;;;;;2.50;69.92;101859.63;5065859;28;45322;-76
2022/04/10 05:40:13;;;;;;;;;28.75;25.50;;;;;2.41;70.44;101846.81;5067325;28;45412;-77
2022/04/10 05:42:43;;;;;;;;;27.25;26.00;;;;;2.03;70.46;101781.34;5064166;28;45492;-76
2022/04/10 05:45:09;;;;;;;;;29.00;24.75;;;;;2.45;70.22;101860.16;5071011;28;45675;-76
2022/04/10 05:47:36;;;;;;;;;33.00;30.00;;;;;2.53;70.36;101876.41;5067391;27;45271;-77
2022/04/10 05:50:02;;;;;;;;;41.00;35.75;;;;;2.55;70.43;101880.03;5071800;28;46314;-76
2022/04/10 05:52:28;;;;;;;;;39.75;34.00;;;;;2.56;70.75;101870.50;5068497;28;46988;-77
2022/04/10 05:54:57;;;;;;;;;39.33;38.00;;;;;2.59;70.65;101875.94;5060696;28;45530;-76
2022/04/10 05:57:22;;;;;;;;;32.75;31.50;;;;;2.46;70.97;101855.84;5069939;28;45293;-76
2022/04/10 05:59:48;;;;;;;;;30.50;26.75;;;;;2.46;70.64;101856.78;5060318;28;45486;-76
2022/04/10 06:02:13;;;;;;;;;33.50;31.75;;;;;2.57;71.01;101865.38;5067561;28;46296;-78
2022/04/10 06:04:38;;;;;;;;;36.00;31.00;;;;;2.70;70.87;101885.47;5060803;28;45335;-77
2022/04/10 06:07:04;;;;;;;;;34.50;32.75;;;;;2.42;70.56;101831.25;5063267;27;45355;-77
2022/04/10 06:09:29;;;;;;;;;33.00;29.25;;;;;2.65;70.71;101865.94;5060194;28;45551;-77
2022/04/10 06:11:55;;;;;;;;;37.50;32.00;;;;;2.75;72.22;101876.28;5068804;28;46518;-76
2022/04/10 06:14:20;;;;;;;;;37.50;30.25;;;;;2.71;71.94;101849.81;5064988;27;45320;-76
2022/04/10 06:16:45;;;;;;;;;37.00;33.00;;;;;3.00;72.20;101892.03;5070536;27;45275;-76
2022/04/10 06:19:11;;;;;;;;;39.75;35.50;;;;;3.04;71.78;101880.09;5068475;27;45244;-76
2022/04/10 06:21:36;;;;;;;;;32.75;32.00;;;;;3.17;71.50;101884.50;5070576;28;45333;-76
2022/04/10 06:24:01;;;;;;;;;43.00;32.00;;;;;3.30;70.48;101876.72;5068406;27;45166;-78
2022/04/10 06:26:27;;;;;;;;;30.50;29.75;;;;;3.54;70.52;101898.44;5070195;28;45711;-76
2022/04/10 06:28:53;;;;;;;;;37.50;34.50;;;;;3.52;70.01;101864.34;5068302;27;45248;-75
2022/04/10 06:31:18;;;;;;;;;38.00;33.00;;;;;3.66;70.77;101854.84;5065091;28;47246;-75
2022/04/10 06:33:44;;;;;;;;;35.25;31.75;;;;;3.78;69.55;101854.78;5075157;28;45209;-76
2022/04/10 06:36:10;;;;;;;;;39.50;32.00;;;;;3.94;69.55;101865.47;5065853;28;45256;-75
2022/04/10 06:38:35;;;;;;;;;38.50;35.75;;;;;4.03;69.65;101846.88;5067445;28;45876;-76
2022/04/10 06:41:01;;;;;;;;;34.00;30.75;;;;;4.25;69.26;101859.69;5064165;28;45982;-76
2022/04/10 06:43:26;;;;;;;;;42.25;37.00;;;;;4.54;67.92;101881.66;5066573;28;45297;-76
2022/04/10 06:45:52;;;;;;;;;38.00;36.00;;;;;4.52;68.03;101852.78;5074364;28;45509;-74
2022/04/10 06:48:17;;;;;;;;;36.00;36.00;;;;;4.44;67.78;101813.00;5064135;27;45320;-74
2022/04/10 06:50:42;;;;;;;;;36.25;32.75;;;;;5.00;67.03;101877.72;5074222;28;46040;-74
2022/04/10 06:53:09;;;;;;;;;36.50;34.00;;;;;4.73;67.46;101795.63;5069243;27;45375;-75
2022/04/10 06:55:35;;;;;;;;;39.00;34.50;;;;;5.18;66.81;101845.59;5074586;28;45300;-75
2022/04/10 06:58:00;;;;;;;;;36.75;35.50;;;;;5.16;65.91;101822.84;5068360;28;45608;-75
2022/04/10 07:00:27;;;;;;;;;39.75;31.00;;;;;5.70;65.34;101885.56;5065993;28;46078;-75
2022/04/10 07:02:52;;;;;;;;;38.00;31.75;;;;;5.78;65.24;101871.22;5082795;27;45410;-75
2022/04/10 07:05:18;;;;;;;;;34.50;31.50;;;;;5.91;65.31;101872.84;5067721;28;45716;-74
2022/04/10 07:07:44;;;;;;;;;40.25;37.25;;;;;6.14;65.63;101877.78;5073482;28;45906;-74
2022/04/10 07:10:09;;;;;;;;;38.75;34.50;;;;;6.19;63.64;101851.78;5068641;28;45284;-74
2022/04/10 07:12:34;;;;;;;;;32.75;31.25;;;;;6.35;63.39;101858.88;5067558;28;45597;-75
2022/04/10 07:15:01;;;;;;;;;38.25;33.00;;;;;6.60;62.90;101848.94;5075054;28;45362;-75
2022/04/10 07:17:27;;;;;;;;;42.00;36.25;;;;;6.88;62.38;101859.28;5093331;27;46034;-74
2022/04/10 07:19:52;;;;;;;;;34.75;34.75;;;;;7.14;60.56;101875.63;5065226;27;45300;-75
2022/04/10 07:25:01;;;;;;;;;34.75;33.00;;;;;7.50;61.15;101875.81;5063140;28;45449;-74
2022/04/10 07:27:27;;;;;;;;;41.25;33.25;;;;;7.61;60.58;101856.25;5089582;27;46069;-75
2022/04/10 07:29:52;;;;;;;;;29.75;29.75;;;;;7.83;59.26;101860.94;5074604;27;47030;-75
2022/04/10 07:32:17;;;;;;;;;32.75;30.25;;;;;8.05;60.10;101865.59;5065666;28;45345;-75
2022/04/10 07:34:43;;;;;;;;;44.50;32.25;;;;;8.21;58.29;101840.94;5078463;27;45422;-74
2022/04/10 07:37:08;;;;;;;;;36.50;35.00;;;;;8.64;59.19;101883.53;5072973;27;45469;-75
2022/04/10 07:39:33;;;;;;;;;27.50;27.00;;;;;8.76;58.46;101854.25;5060831;28;48139;-75
2022/04/10 07:41:59;;;;;;;;;39.50;35.00;;;;;8.65;59.84;101800.09;5067671;27;45391;-75
2022/04/10 07:44:24;;;;;;;;;40.00;35.00;;;;;9.32;58.74;101871.84;5060812;28;45438;-76
2022/04/10 07:49:33;;;;;;;;;52.25;43.50;;;;;9.73;57.75;101853.47;5068613;28;45562;-75
2022/04/10 07:51:59;;;;;;;;;55.50;44.75;;;;;10.02;54.92;101862.66;5072139;27;45349;-74
2022/04/10 07:54:24;;;;;;;;;69.00;54.25;;;;;10.24;57.60;101859.22;5061690;28;45295;-75
2022/04/10 07:56:49;;;;;;;;;348.50;295.00;;;;;10.26;54.62;101850.53;5072498;28;45236;-75
2022/04/10 07:59:16;;;;;;;;;46.50;38.25;;;;;10.42;55.69;101857.41;5060262;28;45252;-74
2022/04/10 08:01:41;;;;;;;;;69.50;51.50;;;;;10.53;54.13;101842.88;5067871;28;45434;-74
2022/04/10 08:04:06;;;;;;;;;47.25;37.75;;;;;10.84;53.87;101873.22;5058480;28;45267;-73
2022/04/10 08:06:32;;;;;;;;;46.50;37.50;;;;;10.93;54.48;101843.59;5068139;28;45365;-74
2022/04/10 08:08:57;;;;;;;;;39.50;34.25;;;;;11.11;55.57;101835.47;5070423;27;44996;-74
2022/04/10 08:11:23;;;;;;;;;63.50;49.00;;;;;11.34;53.01;101845.19;5065629;28;45372;-75
2022/04/10 08:13:48;;;;;;;;;49.75;38.25;;;;;11.52;53.58;101852.91;5070649;27;45208;-75
2022/04/10 08:16:15;;;;;;;;;46.00;37.25;;;;;11.79;51.77;101874.25;5068271;28;45394;-75
2022/04/10 08:18:40;;;;;;;;;35.75;29.50;;;;;11.94;53.83;101865.97;5059587;28;45320;-75
2022/04/10 08:21:07;;;;;;;;;33.25;32.50;;;;;12.00;54.12;101865.28;5067058;28;45432;-76
2022/04/10 08:23:32;;;;;;;;;35.75;29.50;;;;;12.14;49.49;101850.75;5069130;28;45355;-77
2022/04/10 08:25:58;;;;;;;;;71.25;56.50;;;;;12.45;51.56;101862.41;5062875;28;45780;-77
2022/04/10 08:28:23;;;;;;;;;88.50;76.00;;;;;12.62;51.02;101865.63;5067851;28;45434;-76
2022/04/10 08:30:49;;;;;;;;;124.00;110.67;;;;;12.81;52.02;101862.72;5064127;28;45316;-76
2022/04/10 08:33:14;;;;;;;;;78.50;63.25;;;;;13.03;48.12;101861.66;5066700;28;45277;-76
2022/04/10 08:35:39;;;;;;;;;93.67;85.67;;;;;13.11;47.13;101862.81;5069499;27;46982;-76
2022/04/10 08:38:05;;;;;;;;;34.00;32.00;;;;;13.04;45.97;101838.66;5065654;28;46656;-77
2022/04/10 08:40:32;;;;;;;;;81.75;67.00;;;;;13.33;49.13;101856.44;5061528;28;45646;-77
2022/04/10 08:43:00;;;;;;;;;34.25;31.25;;;;;13.27;45.61;101824.34;5075230;28;45217;-78
2022/04/10 08:45:26;;;;;;;;;37.25;32.00;;;;;13.55;46.92;101863.25;5065018;28;45307;-77
2022/04/10 08:47:53;;;;;;;;;36.50;31.00;;;;;13.72;47.26;101861.06;5076000;27;46051;-76
2022/04/10 08:50:19;;;;;;;;;31.00;28.25;;;;;13.78;50.19;101850.66;5072853;27;45347;-76
2022/04/10 08:52:45;;;;;;;;;28.75;28.25;;;;;14.00;45.86;101856.53;5069898;27;45287;-76
2022/04/10 08:55:11;;;;;;;;;34.00;31.50;;;;;14.28;48.15;101864.41;5061640;28;45468;-76
2022/04/10 08:57:36;;;;;;;;;26.75;26.75;;;;;14.47;43.82;101851.56;5068201;28;45298;-77
2022/04/10 09:00:04;;;;;;;;;151.50;135.25;;;;;14.73;45.00;101869.13;5061224;28;45279;-76
2022/04/10 09:02:29;;;;;;;;;27.50;26.00;;;;;14.77;42.81;101832.84;5067571;28;45168;-77
2022/04/10 09:04:55;;;;;;;;;19.75;19.50;;;;;14.81;43.07;101812.50;5072451;28;45450;-76
2022/04/10 09:07:21;;;;;;;;;14.50;12.75;;;;;14.77;40.50;101790.25;5070317;27;46197;-75
2022/04/10 09:09:57;;;;;;;;;11.00;11.00;;;;;15.36;41.12;101867.00;5062417;28;45325;-77
2022/04/10 09:12:23;;;;;;;;;9.33;9.33;;;;;15.47;43.22;101867.25;5070226;27;45348;-77
2022/04/10 09:14:50;;;;;;;;;13.00;12.00;;;;;15.49;43.69;101844.19;5062962;28;45256;-75
2022/04/10 09:17:18;;;;;;;;;9.67;9.33;;;;;15.57;38.96;101855.91;5072770;28;45264;-76
2022/04/10 09:19:44;;;;;;;;;11.00;11.00;;;;;15.71;37.72;101865.13;5061353;28;45817;-75
2022/04/10 09:22:30;;;;;;;;;12.33;10.00;;;;;15.80;42.36;101857.31;5071059;28;45283;-75
2022/04/10 09:25:13;;;;;;;;;11.00;9.67;;;;;16.00;40.57;101856.81;5073452;27;45619;-75
2022/04/10 09:27:46;;;;;;;;;9.67;8.67;;;;;16.01;39.27;101819.47;5066644;28;45308;-76
2022/04/10 09:30:13;;;;;;;;;9.00;7.33;;;;;16.15;34.84;101854.41;5060877;28;45403;-77
2022/04/10 09:32:39;;;;;;;;;10.33;10.33;;;;;15.98;35.66;101848.75;5065569;28;45262;-77
2022/04/10 09:35:05;;;;;;;;;12.00;12.00;;;;;16.07;38.43;101851.59;5061071;28;45280;-77
2022/04/10 09:37:55;;;;;;;;;11.33;11.00;;;;;16.39;38.52;101858.41;5063076;28;47252;-77
2022/04/10 09:40:37;;;;;;;;;8.00;8.00;;;;;16.60;41.29;101844.50;5065540;28;45419;-77
2022/04/10 09:43:10;;;;;;;;;13.00;8.33;;;;;16.87;38.03;101861.00;5063676;28;45340;-76
2022/04/10 09:45:40;;;;;;;;;15.00;13.00;;;;;17.10;39.86;101856.00;5063652;28;45414;-78
2022/04/10 09:48:27;;;;;;;;;3.67;3.67;;;;;16.78;37.21;101799.47;5062173;28;48148;-77
2022/04/10 09:50:58;;;;;;;;;7.67;7.67;;;;;16.97;33.38;101796.19;5066469;28;45318;-77
2022/04/10 09:53:24;;;;;;;;;9.67;7.67;;;;;17.26;34.86;101830.41;5067075;27;45350;-79
2022/04/10 09:55:54;;;;;;;;;9.33;9.33;;;;;17.35;36.31;101843.00;5068331;28;46201;-78
2022/04/10 09:58:20;;;;;;;;;17.67;17.33;;;;;17.57;36.55;101852.19;5066816;28;46351;-77
2022/04/10 10:00:47;;;;;;;;;7.67;7.67;;;;;17.64;32.30;101848.69;5068900;28;45406;-77
2022/04/10 10:03:13;;;;;;;;;11.00;11.00;;;;;17.74;33.04;101845.25;5065975;27;45462;-78
2022/04/10 10:05:40;;;;;;;;;9.00;9.00;;;;;17.77;34.13;101823.00;5068013;28;45505;-77
2022/04/10 10:08:07;;;;;;;;;13.33;9.00;;;;;18.06;33.73;101844.72;5077031;28;45429;-78
2022/04/10 10:10:37;;;;;;;;;6.00;5.00;;;;;17.64;30.81;101811.25;5075395;27;45398;-78
2022/04/10 10:13:05;;;;;;;;;31.33;27.67;;;;;17.88;32.03;101832.06;5073986;28;45445;-78
2022/04/10 10:15:32;;;;;;;;;6.00;5.00;;;;;17.80;32.99;101790.97;5066465;28;45401;-78
2022/04/10 10:17:59;;;;;;;;;8.33;6.00;;;;;18.26;34.35;101837.81;5075829;28;45287;-79
2022/04/10 10:20:26;;;;;;;;;5.00;4.67;;;;;18.43;35.03;101839.72;5065983;28;45296;-78
2022/04/10 10:22:52;;;;;;;;;6.00;5.00;;;;;18.62;33.05;101839.00;5074743;28;45366;-77
2022/04/10 10:25:27;;;;;;;;;5.00;5.00;;;;;18.82;31.18;101836.53;5064683;28;45387;-78
2022/04/10 10:28:14;;;;;;;;;4.00;4.00;;;;;18.95;32.38;101829.44;5072066;27;46245;-78
2022/04/10 10:30:48;;;;;;;;;6.00;5.00;;;;;19.21;34.21;101829.59;5066324;28;45457;-78
2022/04/10 10:33:21;;;;;;;;;7.33;6.67;;;;;19.26;31.51;101801.03;5069126;28;45353;-78
2022/04/10 10:35:52;;;;;;;;;10.00;7.00;;;;;19.51;32.40;101815.41;5065412;28;45376;-78
2022/04/10 10:38:19;;;;;;;;;6.67;6.67;;;;;19.56;28.90;101808.28;5067606;28;45395;-78
2022/04/10 10:40:44;;;;;;;;;5.00;5.00;;;;;19.55;33.56;101803.84;5063734;28;45304;-78
2022/04/10 10:43:10;;;;;;;;;8.33;6.67;;;;;19.49;30.34;101794.84;5066280;28;45324;-78
2022/04/10 10:45:41;;;;;;;;;10.67;9.00;;;;;19.48;28.32;101811.84;5065720;28;46438;-78
2022/04/10 10:48:22;;;;;;;;;7.33;6.00;;;;;19.36;29.04;101810.00;5066054;27;45368;-79
2022/04/10 10:50:47;;;;;;;;;14.67;14.67;;;;;19.21;31.19;101786.69;5068209;28;45418;-79
2022/04/10 10:53:13;;;;;;;;;6.67;5.67;;;;;19.34;30.61;101775.13;5066768;27;45445;-78
2022/04/10 10:55:44;;;;;;;;;5.00;4.67;;;;;19.66;30.59;101806.56;5074726;28;45391;-79
2022/04/10 10:58:15;;;;;;;;;6.33;5.00;;;;;19.30;30.41;101741.19;5067106;28;46354;-78
2022/04/10 11:00:40;;;;;;;;;5.33;5.00;;;;;19.69;29.89;101769.03;5066941;28;45332;-78
2022/04/10 11:03:09;;;;;;;;;10.33;6.00;;;;;20.02;30.62;101795.00;5065054;28;45319;-78
2022/04/10 11:05:36;;;;;;;;;7.33;7.33;;;;;20.16;31.60;101791.44;5075310;27;45331;-79
2022/04/10 11:08:08;;;;;;;;;7.00;5.33;;;;;20.33;28.26;101782.53;5073740;28;45398;-77
2022/04/10 11:10:38;;;;;;;;;6.00;6.00;;;;;20.34;26.66;101775.34;5065573;28;45548;-79
2022/04/10 11:13:07;;;;;;;;;6.00;5.00;;;;;20.37;26.74;101780.72;5072921;28;45300;-80
2022/04/10 11:15:46;;;;;;;;;3.67;3.33;;;;;20.47;30.65;101774.47;5067109;28;45300;-79
2022/04/10 11:18:24;;;;;;;;;5.33;5.33;;;;;20.81;31.89;101771.75;5071080;28;46599;-77
2022/04/10 11:20:54;;;;;;;;;7.67;7.67;;;;;20.78;30.48;101769.03;5067512;28;45314;-77
2022/04/10 11:23:20;;;;;;;;;7.00;5.33;;;;;20.77;30.91;101772.63;5070093;28;45254;-77